Time;durP1;ratioP1;P1;durP2;ratioP2;P2;SDS_P1;SDS_P2;PMS_P1;PMS_P2;Temp;Humidity;BMP_temperature;BMP_pressure;BME280_temperature;BME280_humidity;BME280_pressure;Samples;Min_cycle;Max_cycle;Signal;HPM_P1;HPM_P2
2023/05/15 00:00:55;;;;;;;18.70;10.07;;;;;;;;;;5008610;28;20114;-80
2023/05/15 00:03:24;;;;;;;15.43;10.70;;;;;;;;;;5027420;28;20030;-80
2023/05/15 00:05:55;;;;;;;18.93;11.60;;;;;;;;;;5026171;28;20716;-80
2023/05/15 00:08:21;;;;;;;17.43;11.73;;;;;;;;;;5019667;28;20014;-79
2023/05/15 00:10:47;;;;;;;16.63;11.30;;;;;;;;;;5024544;28;20026;-80
2023/05/15 00:13:13;;;;;;;19.33;11.97;;;;;;;;;;5012125;28;20018;-80
2023/05/15 00:15:49;;;;;;;18.97;11.80;;;;;;;;;;5009585;28;20038;-80
2023/05/15 00:18:17;;;;;;;20.03;13.00;;;;;;;;;;5021126;28;20679;-78
2023/05/15 00:20:46;;;;;;;20.03;13.93;;;;;;;;;;5009218;28;20019;-80
2023/05/15 00:23:17;;;;;;;19.70;13.43;;;;;;;;;;5014788;28;20019;-80
2023/05/15 00:25:43;;;;;;;31.40;13.95;;;;;;;;;;5024017;28;20038;-78
2023/05/15 00:28:09;;;;;;;25.93;15.63;;;;;;;;;;5011152;28;20088;-80
2023/05/15 00:30:38;;;;;;;21.63;13.90;;;;;;;;;;5027238;28;20017;-81
2023/05/15 00:33:04;;;;;;;24.87;16.03;;;;;;;;;;5012936;28;20119;-78
2023/05/15 00:35:34;;;;;;;26.50;16.27;;;;;;;;;;5011232;28;20010;-80
2023/05/15 00:38:00;;;;;;;22.50;17.27;;;;;;;;;;5010796;28;20030;-81
2023/05/15 00:40:29;;;;;;;24.83;16.83;;;;;;;;;;5025101;28;20030;-79
2023/05/15 00:42:55;;;;;;;23.23;16.90;;;;;;;;;;5025957;28;20015;-82
2023/05/15 00:45:24;;;;;;;23.93;17.20;;;;;;;;;;5009519;28;20037;-80
2023/05/15 00:47:53;;;;;;;26.83;18.33;;;;;;;;;;5025357;28;20022;-81
2023/05/15 00:50:32;;;;;;;30.53;19.60;;;;;;;;;;5011439;28;20059;-80
2023/05/15 00:52:58;;;;;;;30.20;19.50;;;;;;;;;;5018350;28;20114;-80
2023/05/15 00:55:27;;;;;;;27.17;19.13;;;;;;;;;;5027177;28;20046;-77
2023/05/15 00:57:57;;;;;;;30.00;19.57;;;;;;;;;;5009620;28;20030;-79
2023/05/15 01:00:24;;;;;;;30.70;20.87;;;;;;;;;;5025111;28;20098;-79
2023/05/15 01:02:50;;;;;;;33.93;22.33;;;;;;;;;;5011206;28;20042;-79
2023/05/15 01:05:16;;;;;;;37.53;22.77;;;;;;;;;;5011884;28;20053;-79
2023/05/15 01:07:51;;;;;;;32.90;22.60;;;;;;;;;;5012857;28;20085;-79
2023/05/15 01:10:19;;;;;;;31.33;21.77;;;;;;;;;;5008546;28;20112;-78
2023/05/15 01:12:46;;;;;;;30.93;21.90;;;;;;;;;;5010078;28;20030;-80
2023/05/15 01:15:12;;;;;;;33.43;23.07;;;;;;;;;;5008602;28;20046;-79
2023/05/15 01:17:38;;;;;;;36.67;23.47;;;;;;;;;;5024758;28;20051;-80
2023/05/15 01:20:06;;;;;;;33.30;23.07;;;;;;;;;;5009549;28;20090;-79
2023/05/15 01:22:32;;;;;;;36.40;22.03;;;;;;;;;;5021280;28;20022;-79
2023/05/15 01:25:13;;;;;;;32.90;22.97;;;;;;;;;;5026927;28;20034;-80
2023/05/15 01:27:43;;;;;;;37.70;24.13;;;;;;;;;;5021418;28;20079;-80
2023/05/15 01:30:16;;;;;;;32.50;24.63;;;;;;;;;;5027435;28;20054;-79
2023/05/15 01:32:48;;;;;;;33.37;25.13;;;;;;;;;;5021563;28;20045;-79
2023/05/15 01:35:16;;;;;;;41.47;27.27;;;;;;;;;;5025101;28;20026;-80
2023/05/15 01:38:01;;;;;;;39.13;26.27;;;;;;;;;;5025922;28;20030;-81
2023/05/15 01:40:28;;;;;;;44.73;27.13;;;;;;;;;;5029106;28;20014;-80
2023/05/15 01:42:55;;;;;;;52.40;29.00;;;;;;;;;;5025686;28;20193;-80
2023/05/15 01:45:23;;;;;;;46.47;28.37;;;;;;;;;;5009698;28;20102;-79
2023/05/15 01:47:52;;;;;;;48.03;27.93;;;;;;;;;;5011701;28;20142;-78
2023/05/15 01:50:19;;;;;;;58.77;30.63;;;;;;;;;;5010958;28;20086;-81
2023/05/15 01:52:50;;;;;;;51.83;29.47;;;;;;;;;;5015590;28;20030;-81
2023/05/15 01:55:16;;;;;;;58.70;32.07;;;;;;;;;;5024621;28;20030;-78
2023/05/15 01:57:48;;;;;;;54.70;31.37;;;;;;;;;;5003523;28;20031;-81
2023/05/15 02:00:14;;;;;;;59.95;32.58;;;;;;;;;;5022575;28;20034;-80
2023/05/15 02:02:47;;;;;;;62.50;33.70;;;;;;;;;;5008251;28;20018;-79
2023/05/15 02:05:14;;;;;;;71.80;35.33;;;;;;;;;;5026371;28;20030;-80
2023/05/15 02:07:44;;;;;;;62.43;33.20;;;;;;;;;;5029328;28;20053;-78
2023/05/15 02:10:13;;;;;;;71.90;35.37;;;;;;;;;;5028467;28;20026;-79
2023/05/15 02:12:42;;;;;;;67.77;37.37;;;;;;;;;;5027684;28;20023;-78
2023/05/15 02:15:09;;;;;;;71.97;37.60;;;;;;;;;;5013209;28;20026;-81
2023/05/15 02:17:38;;;;;;;75.63;38.90;;;;;;;;;;5029699;28;20034;-80
2023/05/15 02:20:07;;;;;;;73.87;39.63;;;;;;;;;;5029510;28;20019;-79
2023/05/15 02:22:38;;;;;;;77.97;38.63;;;;;;;;;;5011847;28;20144;-77
2023/05/15 02:25:04;;;;;;;69.17;38.37;;;;;;;;;;5012487;28;20042;-79
2023/05/15 02:27:48;;;;;;;69.20;39.47;;;;;;;;;;5012380;28;20015;-79
2023/05/15 02:30:20;;;;;;;75.40;38.80;;;;;;;;;;5024672;28;20045;-79
2023/05/15 02:33:04;;;;;;;60.40;35.95;;;;;;;;;;5012114;28;20074;-81
2023/05/15 02:35:39;;;;;;;83.73;38.13;;;;;;;;;;5029328;28;20106;-81
2023/05/15 02:38:08;;;;;;;61.83;38.97;;;;;;;;;;5021594;28;20069;-79
2023/05/15 02:40:39;;;;;;;68.30;38.53;;;;;;;;;;5013597;28;20023;-79
2023/05/15 02:43:08;;;;;;;62.43;37.13;;;;;;;;;;5028510;28;20037;-78
2023/05/15 02:45:34;;;;;;;51.93;36.10;;;;;;;;;;5013150;28;20049;-79
2023/05/15 02:48:09;;;;;;;56.97;34.57;;;;;;;;;;5013033;28;20031;-81
2023/05/15 02:50:35;;;;;;;50.53;34.07;;;;;;;;;;5020215;28;20018;-80
2023/05/15 02:53:06;;;;;;;58.10;35.60;;;;;;;;;;5028438;28;20049;-81
2023/05/15 02:55:33;;;;;;;61.57;36.63;;;;;;;;;;5022899;28;20015;-79
2023/05/15 02:57:59;;;;;;;53.53;36.80;;;;;;;;;;5014246;28;20033;-80
2023/05/15 03:00:25;;;;;;;55.83;36.47;;;;;;;;;;5012000;28;20093;-80
2023/05/15 03:02:52;;;;;;;54.13;37.33;;;;;;;;;;5028686;28;20053;-80
2023/05/15 03:05:18;;;;;;;52.43;36.67;;;;;;;;;;5010714;28;20094;-79
2023/05/15 03:07:44;;;;;;;61.60;37.97;;;;;;;;;;5012945;28;20044;-80
2023/05/15 03:10:12;;;;;;;51.17;36.63;;;;;;;;;;5015188;28;20093;-80
2023/05/15 03:12:39;;;;;;;56.33;37.17;;;;;;;;;;5022666;28;20023;-79
2023/05/15 03:15:05;;;;;;;60.40;41.83;;;;;;;;;;5012327;28;20035;-80
2023/05/15 03:17:31;;;;;;;64.80;40.37;;;;;;;;;;5024058;28;20022;-81
2023/05/15 03:19:58;;;;;;;61.60;40.50;;;;;;;;;;5011310;28;20023;-79
2023/05/15 03:22:24;;;;;;;63.57;40.93;;;;;;;;;;5011927;28;20018;-79
2023/05/15 03:24:50;;;;;;;63.10;41.43;;;;;;;;;;5009373;28;20030;-81
2023/05/15 03:27:16;;;;;;;64.53;42.33;;;;;;;;;;5015193;28;20030;-79
2023/05/15 03:29:42;;;;;;;59.60;39.57;;;;;;;;;;5012053;28;20529;-79
2023/05/15 03:32:08;;;;;;;57.33;39.00;;;;;;;;;;5009399;28;20039;-81
2023/05/15 03:34:35;;;;;;;57.70;39.17;;;;;;;;;;5019545;28;20049;-80
2023/05/15 03:37:01;;;;;;;66.13;41.03;;;;;;;;;;5012999;28;20062;-80
2023/05/15 03:39:27;;;;;;;67.43;42.50;;;;;;;;;;5011488;28;20031;-79
2023/05/15 03:41:53;;;;;;;67.80;41.37;;;;;;;;;;5011885;28;20042;-81
2023/05/15 03:44:19;;;;;;;72.77;44.10;;;;;;;;;;5014247;28;20025;-80
2023/05/15 03:46:46;;;;;;;69.13;42.27;;;;;;;;;;5009859;28;20034;-81
2023/05/15 03:49:12;;;;;;;67.57;44.20;;;;;;;;;;5011647;28;20046;-81
2023/05/15 03:51:38;;;;;;;78.77;43.67;;;;;;;;;;5009857;28;20027;-80
2023/05/15 03:54:04;;;;;;;67.73;40.83;;;;;;;;;;5010749;28;20025;-80
2023/05/15 03:56:34;;;;;;;66.03;40.90;;;;;;;;;;5012002;28;20034;-80
2023/05/15 03:59:00;;;;;;;66.10;41.83;;;;;;;;;;5012819;28;20091;-78
2023/05/15 04:01:26;;;;;;;70.23;43.00;;;;;;;;;;5011324;28;20026;-79
2023/05/15 04:03:52;;;;;;;67.47;42.63;;;;;;;;;;5012795;28;20031;-79
2023/05/15 04:06:21;;;;;;;65.23;43.53;;;;;;;;;;5011095;28;20091;-78
2023/05/15 04:08:50;;;;;;;68.80;42.30;;;;;;;;;;5022052;28;20030;-79
2023/05/15 04:11:16;;;;;;;66.93;40.60;;;;;;;;;;5009357;28;20035;-79
2023/05/15 04:13:42;;;;;;;65.63;41.50;;;;;;;;;;5025999;28;20439;-80
2023/05/15 04:16:08;;;;;;;68.50;43.63;;;;;;;;;;5011813;28;20023;-81
2023/05/15 04:18:34;;;;;;;76.57;45.40;;;;;;;;;;5027051;28;20023;-80
2023/05/15 04:21:00;;;;;;;71.53;44.83;;;;;;;;;;5017719;28;20108;-80
2023/05/15 04:23:26;;;;;;;75.60;45.87;;;;;;;;;;5012134;28;20041;-79
2023/05/15 04:25:55;;;;;;;75.93;44.03;;;;;;;;;;5011211;28;20037;-81
2023/05/15 04:28:21;;;;;;;72.53;42.37;;;;;;;;;;5022315;28;20027;-80
2023/05/15 04:30:47;;;;;;;66.27;43.13;;;;;;;;;;5008683;28;20029;-80
2023/05/15 04:33:16;;;;;;;70.30;43.60;;;;;;;;;;5010906;28;20023;-80
2023/05/15 04:35:42;;;;;;;76.23;46.77;;;;;;;;;;5010405;28;20003;-80
2023/05/15 04:38:08;;;;;;;69.67;45.37;;;;;;;;;;5026396;28;20019;-78
2023/05/15 04:40:34;;;;;;;72.40;45.37;;;;;;;;;;5025348;28;20102;-80
2023/05/15 04:43:02;;;;;;;71.47;45.83;;;;;;;;;;5007499;28;20022;-79
2023/05/15 04:45:32;;;;;;;84.87;47.70;;;;;;;;;;5008815;28;20028;-79
2023/05/15 04:47:58;;;;;;;74.27;46.87;;;;;;;;;;5010813;28;20446;-81
2023/05/15 04:50:26;;;;;;;81.03;49.37;;;;;;;;;;5024719;28;20033;-79
2023/05/15 04:52:55;;;;;;;77.13;50.00;;;;;;;;;;5023054;28;20029;-78
2023/05/15 04:55:23;;;;;;;77.40;46.77;;;;;;;;;;5009881;28;20015;-81
2023/05/15 04:57:51;;;;;;;76.63;47.43;;;;;;;;;;5008512;28;20082;-79
2023/05/15 05:00:17;;;;;;;81.37;49.97;;;;;;;;;;5010315;28;20037;-81
2023/05/15 05:02:44;;;;;;;78.60;47.77;;;;;;;;;;5024527;28;20058;-78
2023/05/15 05:05:10;;;;;;;77.27;47.73;;;;;;;;;;5020496;28;20026;-79
2023/05/15 05:07:38;;;;;;;82.17;49.63;;;;;;;;;;5009774;28;20053;-79
2023/05/15 05:10:08;;;;;;;87.40;52.37;;;;;;;;;;5027589;28;20034;-80
2023/05/15 05:12:34;;;;;;;88.23;49.60;;;;;;;;;;5011429;28;20050;-81
2023/05/15 05:15:02;;;;;;;90.80;55.53;;;;;;;;;;5012144;28;20027;-79
2023/05/15 05:17:31;;;;;;;89.50;52.70;;;;;;;;;;5009472;28;20052;-79
2023/05/15 05:19:57;;;;;;;89.27;52.20;;;;;;;;;;5008046;28;20095;-78
2023/05/15 05:22:25;;;;;;;77.90;48.60;;;;;;;;;;5012054;28;20062;-78
2023/05/15 05:24:53;;;;;;;80.17;48.80;;;;;;;;;;5008765;28;20026;-79
2023/05/15 05:27:19;;;;;;;68.83;43.57;;;;;;;;;;5012123;28;20019;-80
2023/05/15 05:29:53;;;;;;;62.60;40.27;;;;;;;;;;5019774;28;20022;-80
2023/05/15 05:32:19;;;;;;;63.70;40.13;;;;;;;;;;5010077;28;20014;-80
2023/05/15 05:34:45;;;;;;;61.20;39.53;;;;;;;;;;5009798;28;20109;-78
2023/05/15 05:37:14;;;;;;;55.97;34.17;;;;;;;;;;5011052;28;20028;-81
2023/05/15 05:39:58;;;;;;;51.50;34.93;;;;;;;;;;5009910;28;20027;-80
2023/05/15 05:42:24;;;;;;;54.17;34.30;;;;;;;;;;5009163;28;20025;-79
2023/05/15 05:44:50;;;;;;;51.77;35.90;;;;;;;;;;5009086;28;20038;-80
2023/05/15 05:47:16;;;;;;;52.13;34.57;;;;;;;;;;5024802;28;20041;-80
2023/05/15 05:49:42;;;;;;;57.57;33.03;;;;;;;;;;5009293;28;20018;-79
2023/05/15 05:52:08;;;;;;;51.80;34.10;;;;;;;;;;5028146;28;20031;-80
2023/05/15 05:54:37;;;;;;;48.37;33.60;;;;;;;;;;5011656;28;20047;-81
2023/05/15 05:57:03;;;;;;;53.03;36.53;;;;;;;;;;5009983;28;20031;-78
2023/05/15 05:59:35;;;;;;;53.07;33.90;;;;;;;;;;5023959;28;20234;-80
2023/05/15 06:02:01;;;;;;;52.75;35.63;;;;;;;;;;5006864;28;20035;-78
2023/05/15 06:04:30;;;;;;;54.27;34.80;;;;;;;;;;5007221;28;20078;-80
2023/05/15 06:06:57;;;;;;;46.63;32.60;;;;;;;;;;5025420;28;20026;-80
2023/05/15 06:09:23;;;;;;;46.53;34.17;;;;;;;;;;5023107;28;20035;-80
2023/05/15 06:11:54;;;;;;;51.23;33.93;;;;;;;;;;5020806;28;20050;-77
2023/05/15 06:14:20;;;;;;;45.53;32.90;;;;;;;;;;5004489;28;20022;-80
2023/05/15 06:16:46;;;;;;;49.83;33.93;;;;;;;;;;5009134;28;20021;-80
2023/05/15 06:19:15;;;;;;;50.20;34.63;;;;;;;;;;5023003;28;20058;-80
2023/05/15 06:21:42;;;;;;;53.50;35.17;;;;;;;;;;5023452;28;20049;-78
2023/05/15 06:24:08;;;;;;;49.57;33.27;;;;;;;;;;5007477;28;20045;-79
2023/05/15 06:26:34;;;;;;;52.37;33.83;;;;;;;;;;5010039;28;20038;-78
2023/05/15 06:29:00;;;;;;;56.13;37.17;;;;;;;;;;5008265;28;20094;-80
2023/05/15 06:31:26;;;;;;;47.83;34.47;;;;;;;;;;5008699;28;20026;-77
2023/05/15 06:33:52;;;;;;;53.50;37.23;;;;;;;;;;5006808;28;20030;-79
2023/05/15 06:36:18;;;;;;;59.07;38.83;;;;;;;;;;5005013;28;20032;-78
2023/05/15 06:38:44;;;;;;;58.77;38.37;;;;;;;;;;5009075;28;20030;-78
2023/05/15 06:41:10;;;;;;;54.03;37.77;;;;;;;;;;5008384;28;20022;-78
2023/05/15 06:43:39;;;;;;;54.77;39.80;;;;;;;;;;5009008;28;20094;-80
2023/05/15 06:46:05;;;;;;;57.27;41.63;;;;;;;;;;5005451;28;20030;-77
2023/05/15 06:48:31;;;;;;;58.00;40.10;;;;;;;;;;5024301;28;20030;-80
2023/05/15 06:50:58;;;;;;;61.27;39.93;;;;;;;;;;5009808;28;20014;-79
2023/05/15 06:53:26;;;;;;;61.07;41.13;;;;;;;;;;5013699;28;20037;-80
2023/05/15 06:55:52;;;;;;;62.93;42.53;;;;;;;;;;5027773;28;20038;-80
2023/05/15 06:58:18;;;;;;;60.77;41.57;;;;;;;;;;5010973;28;20034;-79
2023/05/15 07:00:44;;;;;;;75.17;46.20;;;;;;;;;;5026760;28;20051;-79
2023/05/15 07:03:10;;;;;;;61.83;42.27;;;;;;;;;;5014222;28;20041;-78
2023/05/15 07:05:38;;;;;;;66.97;44.87;;;;;;;;;;5009338;28;20019;-79
2023/05/15 07:08:07;;;;;;;60.50;41.80;;;;;;;;;;5012245;28;20042;-78
2023/05/15 07:10:33;;;;;;;61.73;43.13;;;;;;;;;;5010620;28;20047;-77
2023/05/15 07:12:59;;;;;;;59.20;41.33;;;;;;;;;;5014210;28;20030;-80
2023/05/15 07:15:25;;;;;;;65.73;42.73;;;;;;;;;;5011004;28;20026;-77
2023/05/15 07:17:51;;;;;;;69.13;45.43;;;;;;;;;;5008351;28;20042;-80
2023/05/15 07:20:17;;;;;;;65.10;43.73;;;;;;;;;;5007258;28;20026;-77
2023/05/15 07:22:43;;;;;;;65.87;44.83;;;;;;;;;;5015019;28;20030;-78
2023/05/15 07:25:09;;;;;;;63.53;43.47;;;;;;;;;;5009591;28;20026;-80
2023/05/15 07:27:38;;;;;;;68.17;44.97;;;;;;;;;;5016320;28;20621;-81
2023/05/15 07:30:06;;;;;;;68.77;45.07;;;;;;;;;;5011363;28;20065;-80
2023/05/15 07:32:32;;;;;;;73.40;44.80;;;;;;;;;;5025218;28;20066;-79
2023/05/15 07:35:01;;;;;;;62.93;42.37;;;;;;;;;;5008690;28;20041;-80
2023/05/15 07:37:27;;;;;;;66.13;43.30;;;;;;;;;;5010631;28;20018;-77
2023/05/15 07:40:03;;;;;;;65.47;42.50;;;;;;;;;;5009200;28;20039;-80
2023/05/15 07:42:29;;;;;;;62.13;42.97;;;;;;;;;;5020096;28;20038;-80
2023/05/15 07:44:55;;;;;;;65.70;42.97;;;;;;;;;;5011510;28;20164;-81
2023/05/15 07:47:21;;;;;;;63.17;41.70;;;;;;;;;;5010508;28;20049;-79
2023/05/15 07:49:47;;;;;;;60.97;43.27;;;;;;;;;;5009252;28;20023;-78
2023/05/15 07:52:15;;;;;;;64.63;42.47;;;;;;;;;;5009189;28;20088;-78
2023/05/15 07:54:41;;;;;;;55.87;39.33;;;;;;;;;;5007990;28;20047;-79
2023/05/15 07:57:08;;;;;;;59.20;41.47;;;;;;;;;;5006886;28;20045;-79
2023/05/15 07:59:34;;;;;;;58.53;39.90;;;;;;;;;;5025398;28;20034;-80
2023/05/15 08:02:00;;;;;;;64.37;43.20;;;;;;;;;;5008304;28;20031;-78
2023/05/15 08:04:26;;;;;;;65.40;42.23;;;;;;;;;;5009222;28;20026;-79
2023/05/15 08:06:56;;;;;;;62.77;41.43;;;;;;;;;;5021196;28;20024;-79
2023/05/15 08:09:22;;;;;;;67.97;43.60;;;;;;;;;;5007744;28;20010;-78
2023/05/15 08:11:48;;;;;;;60.53;40.13;;;;;;;;;;5008124;28;20038;-81
2023/05/15 08:14:14;;;;;;;64.63;40.77;;;;;;;;;;5025287;28;20030;-78
2023/05/15 08:16:41;;;;;;;61.10;41.50;;;;;;;;;;5023663;28;20037;-77
2023/05/15 08:19:09;;;;;;;54.03;38.10;;;;;;;;;;5009695;28;20043;-78
2023/05/15 08:21:35;;;;;;;64.17;39.97;;;;;;;;;;5007857;28;20101;-81
2023/05/15 08:24:01;;;;;;;54.93;39.17;;;;;;;;;;5008284;28;20046;-81
2023/05/15 08:26:27;;;;;;;57.67;39.27;;;;;;;;;;5022460;28;20127;-77
2023/05/15 08:28:53;;;;;;;55.80;37.27;;;;;;;;;;5002308;28;20123;-79
2023/05/15 08:31:19;;;;;;;50.80;35.47;;;;;;;;;;5008390;28;20026;-79
2023/05/15 08:33:48;;;;;;;50.27;35.73;;;;;;;;;;5024533;28;20185;-77
2023/05/15 08:36:16;;;;;;;57.63;36.63;;;;;;;;;;5007106;28;20026;-79
2023/05/15 08:38:43;;;;;;;47.13;34.90;;;;;;;;;;5011169;28;20018;-78
2023/05/15 08:41:17;;;;;;;48.13;32.13;;;;;;;;;;5009264;28;20082;-79
2023/05/15 08:43:43;;;;;;;48.90;34.73;;;;;;;;;;5007865;28;20085;-79
2023/05/15 08:46:16;;;;;;;49.23;34.53;;;;;;;;;;5024263;28;20156;-79
2023/05/15 08:48:43;;;;;;;55.03;33.90;;;;;;;;;;5008620;28;20079;-77
2023/05/15 08:51:09;;;;;;;46.93;34.37;;;;;;;;;;5025130;28;20163;-79
2023/05/15 08:53:36;;;;;;;44.00;32.37;;;;;;;;;;5009277;28;20042;-80
2023/05/15 08:56:02;;;;;;;48.93;31.83;;;;;;;;;;5008755;28;20041;-80
2023/05/15 08:58:29;;;;;;;42.73;31.57;;;;;;;;;;5024888;28;20065;-78
2023/05/15 09:00:56;;;;;;;45.83;31.87;;;;;;;;;;5007387;28;20030;-81
2023/05/15 09:03:23;;;;;;;44.03;30.90;;;;;;;;;;5021898;28;20026;-78
2023/05/15 09:05:51;;;;;;;43.43;31.10;;;;;;;;;;5022621;28;20027;-78
2023/05/15 09:08:18;;;;;;;47.27;30.27;;;;;;;;;;5021593;28;20045;-80
2023/05/15 09:10:48;;;;;;;42.30;29.30;;;;;;;;;;5007305;28;20031;-79
2023/05/15 09:13:14;;;;;;;42.10;30.73;;;;;;;;;;5002587;28;20090;-78
2023/05/15 09:15:41;;;;;;;39.90;29.57;;;;;;;;;;5020947;28;20023;-79
2023/05/15 09:18:10;;;;;;;41.93;29.50;;;;;;;;;;5006285;28;20011;-78
2023/05/15 09:20:37;;;;;;;43.92;29.92;;;;;;;;;;5005760;28;20018;-78
2023/05/15 09:23:04;;;;;;;38.60;28.00;;;;;;;;;;5008684;28;20026;-78
2023/05/15 09:25:45;;;;;;;42.03;29.13;;;;;;;;;;5016667;28;20031;-78
2023/05/15 09:28:26;;;;;;;40.15;26.88;;;;;;;;;;5009128;28;20376;-79
2023/05/15 09:30:57;;;;;;;37.47;27.77;;;;;;;;;;5016790;28;20029;-79
2023/05/15 09:33:28;;;;;;;41.40;28.23;;;;;;;;;;5007939;28;20026;-78
2023/05/15 09:35:56;;;;;;;41.92;26.60;;;;;;;;;;5021271;28;20117;-80
2023/05/15 09:38:22;;;;;;;38.97;27.45;;;;;;;;;;5008058;28;20050;-78
2023/05/15 09:40:49;;;;;;;32.72;24.70;;;;;;;;;;5004230;28;20045;-80
2023/05/15 09:43:15;;;;;;;39.50;22.58;;;;;;;;;;5018434;28;20094;-79
2023/05/15 09:45:41;;;;;;;32.95;24.52;;;;;;;;;;5022579;28;20045;-80
2023/05/15 09:48:10;;;;;;;31.58;24.38;;;;;;;;;;5007425;28;20031;-78
2023/05/15 09:50:39;;;;;;;35.00;24.98;;;;;;;;;;5010129;28;20023;-78
2023/05/15 09:53:05;;;;;;;36.08;25.52;;;;;;;;;;5004516;28;20018;-78
2023/05/15 09:55:33;;;;;;;29.98;23.00;;;;;;;;;;5009084;28;20061;-77
2023/05/15 09:58:10;;;;;;;28.67;21.45;;;;;;;;;;5018032;28;20034;-78
2023/05/15 10:00:39;;;;;;;33.67;24.02;;;;;;;;;;5017568;28;20038;-78
2023/05/15 10:03:06;;;;;;;31.60;20.92;;;;;;;;;;5023223;28;20022;-79
2023/05/15 10:05:32;;;;;;;33.85;24.40;;;;;;;;;;5006504;28;20032;-79
2023/05/15 10:07:59;;;;;;;37.13;25.50;;;;;;;;;;5022414;28;20049;-78
2023/05/15 10:10:25;;;;;;;29.45;21.63;;;;;;;;;;5010198;28;20196;-80
2023/05/15 10:12:52;;;;;;;29.00;20.88;;;;;;;;;;5021127;28;20061;-78
2023/05/15 10:15:20;;;;;;;31.40;21.23;;;;;;;;;;5021705;28;20030;-79
2023/05/15 10:17:50;;;;;;;30.10;21.95;;;;;;;;;;5023730;28;20034;-77
2023/05/15 10:20:16;;;;;;;29.30;22.27;;;;;;;;;;5008497;28;20054;-78
2023/05/15 10:22:45;;;;;;;33.50;23.13;;;;;;;;;;5019798;28;20053;-79
2023/05/15 10:25:29;;;;;;;30.23;22.90;;;;;;;;;;5024883;28;20045;-80
2023/05/15 10:27:55;;;;;;;30.77;23.27;;;;;;;;;;5009530;28;20046;-79
2023/05/15 10:30:24;;;;;;;36.03;23.77;;;;;;;;;;5027763;28;20041;-81
2023/05/15 10:32:50;;;;;;;33.75;23.35;;;;;;;;;;5010983;28;20023;-78
2023/05/15 10:35:17;;;;;;;23.73;17.30;;;;;;;;;;5014643;28;20042;-79
2023/05/15 10:37:44;;;;;;;22.52;16.98;;;;;;;;;;5009078;28;20042;-79
2023/05/15 10:40:11;;;;;;;20.55;14.88;;;;;;;;;;5018583;28;20098;-81
2023/05/15 10:42:37;;;;;;;23.40;15.13;;;;;;;;;;5011280;28;20037;-79
2023/05/15 10:45:07;;;;;;;25.90;16.45;;;;;;;;;;5009447;28;20042;-79
2023/05/15 10:47:35;;;;;;;26.92;18.38;;;;;;;;;;5010504;28;20023;-77
2023/05/15 10:50:01;;;;;;;27.42;18.55;;;;;;;;;;5027483;28;20026;-80
2023/05/15 10:52:27;;;;;;;23.13;17.52;;;;;;;;;;5026052;28;20038;-80
2023/05/15 10:54:53;;;;;;;24.60;17.63;;;;;;;;;;5009799;28;20061;-79
2023/05/15 10:57:22;;;;;;;26.55;18.58;;;;;;;;;;5009731;28;20039;-79
2023/05/15 10:59:49;;;;;;;23.45;17.75;;;;;;;;;;5017998;28;20045;-80
2023/05/15 11:02:30;;;;;;;30.15;19.08;;;;;;;;;;5012535;28;20029;-78
2023/05/15 11:05:00;;;;;;;27.05;18.92;;;;;;;;;;5010313;28;20031;-79
2023/05/15 11:07:27;;;;;;;25.10;19.17;;;;;;;;;;5011188;28;20029;-79
2023/05/15 11:09:54;;;;;;;26.88;18.80;;;;;;;;;;5010359;28;20094;-79
2023/05/15 11:12:20;;;;;;;33.05;21.38;;;;;;;;;;5011622;28;20110;-78
2023/05/15 11:14:55;;;;;;;24.73;19.60;;;;;;;;;;5011810;28;20034;-78
2023/05/15 11:17:25;;;;;;;24.85;19.17;;;;;;;;;;5008512;28;20018;-79
2023/05/15 11:19:51;;;;;;;35.03;21.67;;;;;;;;;;5027626;28;20014;-78
2023/05/15 11:22:40;;;;;;;22.92;17.85;;;;;;;;;;5010833;28;20091;-78
2023/05/15 11:25:08;;;;;;;18.67;14.75;;;;;;;;;;5026555;28;20038;-79
2023/05/15 11:27:37;;;;;;;16.30;12.02;;;;;;;;;;5017783;28;20025;-79
2023/05/15 11:30:14;;;;;;;19.90;16.27;;;;;;;;;;5019602;28;20031;-79
2023/05/15 11:32:58;;;;;;;20.42;16.20;;;;;;;;;;5010439;28;20036;-79
2023/05/15 11:35:42;;;;;;;20.65;16.25;;;;;;;;;;5025558;28;20057;-78
2023/05/15 11:38:19;;;;;;;17.50;12.68;;;;;;;;;;5024293;28;20029;-80
2023/05/15 11:40:55;;;;;;;14.98;10.20;;;;;;;;;;5024215;28;20038;-81
2023/05/15 11:43:21;;;;;;;16.05;8.73;;;;;;;;;;5010118;28;20414;-78
2023/05/15 11:45:54;;;;;;;12.32;8.55;;;;;;;;;;5012039;28;20019;-80
2023/05/15 11:48:20;;;;;;;17.73;10.30;;;;;;;;;;5007065;28;20030;-78
2023/05/15 11:50:46;;;;;;;18.80;10.55;;;;;;;;;;5021950;28;20022;-78
2023/05/15 11:53:13;;;;;;;15.02;10.77;;;;;;;;;;5008174;28;20058;-81
2023/05/15 11:55:40;;;;;;;13.43;10.93;;;;;;;;;;5017777;28;20042;-80
2023/05/15 11:58:11;;;;;;;14.85;11.65;;;;;;;;;;5009709;28;20030;-78
2023/05/15 12:00:37;;;;;;;19.38;13.48;;;;;;;;;;5022761;28;20031;-77
2023/05/15 12:03:05;;;;;;;19.58;13.10;;;;;;;;;;5007141;28;20034;-80
2023/05/15 12:05:31;;;;;;;15.40;11.95;;;;;;;;;;5023855;28;20034;-78
2023/05/15 12:07:58;;;;;;;15.05;11.25;;;;;;;;;;5009344;28;20096;-79
2023/05/15 12:10:24;;;;;;;16.75;10.18;;;;;;;;;;5008631;28;20015;-79
2023/05/15 12:12:50;;;;;;;13.73;10.73;;;;;;;;;;5008798;28;20058;-79
2023/05/15 12:15:16;;;;;;;16.75;10.75;;;;;;;;;;5010222;28;20014;-80
2023/05/15 12:17:43;;;;;;;14.10;10.20;;;;;;;;;;5022467;28;20054;-80
2023/05/15 12:20:16;;;;;;;18.48;12.05;;;;;;;;;;5014923;28;20046;-79
2023/05/15 12:22:42;;;;;;;18.55;12.23;;;;;;;;;;5008251;28;20049;-80
2023/05/15 12:25:10;;;;;;;16.58;12.27;;;;;;;;;;5009490;28;20097;-78
2023/05/15 12:27:37;;;;;;;17.55;11.98;;;;;;;;;;5006766;28;20030;-80
2023/05/15 12:30:04;;;;;;;17.92;11.80;;;;;;;;;;5023032;28;20022;-79
2023/05/15 12:32:34;;;;;;;13.82;11.68;;;;;;;;;;5022745;28;20014;-78
2023/05/15 12:35:00;;;;;;;15.93;12.27;;;;;;;;;;5023549;28;20014;-77
2023/05/15 12:37:27;;;;;;;17.98;11.82;;;;;;;;;;5021849;28;20030;-79
2023/05/15 12:39:53;;;;;;;13.68;10.25;;;;;;;;;;5022700;28;20018;-80
2023/05/15 12:42:19;;;;;;;22.40;11.68;;;;;;;;;;5022745;28;20730;-81
2023/05/15 12:44:45;;;;;;;16.02;11.25;;;;;;;;;;5022627;28;20066;-78
2023/05/15 12:47:14;;;;;;;16.75;12.00;;;;;;;;;;5007224;28;20094;-80
2023/05/15 12:49:41;;;;;;;17.98;13.18;;;;;;;;;;5016000;28;20038;-81
2023/05/15 12:52:09;;;;;;;15.82;11.30;;;;;;;;;;5010261;28;20027;-79
2023/05/15 12:54:39;;;;;;;16.90;12.48;;;;;;;;;;5010064;28;20288;-80
2023/05/15 12:57:08;;;;;;;18.85;12.00;;;;;;;;;;5020171;28;20088;-80
2023/05/15 12:59:35;;;;;;;13.38;10.38;;;;;;;;;;5008118;28;20068;-79
2023/05/15 13:02:01;;;;;;;13.13;9.43;;;;;;;;;;5007918;28;20022;-76
2023/05/15 13:04:27;;;;;;;10.73;9.07;;;;;;;;;;5004690;28;20052;-77
2023/05/15 13:06:53;;;;;;;15.57;11.25;;;;;;;;;;5021921;28;20045;-80
2023/05/15 13:09:25;;;;;;;14.07;9.60;;;;;;;;;;5021067;28;20102;-77
2023/05/15 13:11:51;;;;;;;14.98;12.05;;;;;;;;;;5006861;28;20030;-78
2023/05/15 13:14:18;;;;;;;17.50;11.02;;;;;;;;;;5019921;28;20038;-80
2023/05/15 13:16:46;;;;;;;13.40;11.20;;;;;;;;;;5005810;28;20131;-80
2023/05/15 13:19:12;;;;;;;18.45;13.25;;;;;;;;;;5021743;28;20041;-79
2023/05/15 13:21:39;;;;;;;18.17;11.30;;;;;;;;;;5007141;28;20071;-79
2023/05/15 13:24:05;;;;;;;12.40;10.65;;;;;;;;;;5002681;28;20034;-79
2023/05/15 13:26:31;;;;;;;13.30;10.93;;;;;;;;;;5018878;28;20038;-79
2023/05/15 13:28:57;;;;;;;19.42;13.18;;;;;;;;;;5019025;28;20035;-79
2023/05/15 13:31:23;;;;;;;23.67;12.27;;;;;;;;;;5005571;28;20018;-79
2023/05/15 13:33:49;;;;;;;19.85;13.07;;;;;;;;;;5004672;28;20026;-78
2023/05/15 13:36:15;;;;;;;16.98;12.32;;;;;;;;;;5005640;28;20038;-78
2023/05/15 13:38:41;;;;;;;16.70;12.38;;;;;;;;;;5019718;28;20046;-78
2023/05/15 13:41:08;;;;;;;15.23;10.82;;;;;;;;;;5004330;28;20038;-78
2023/05/15 13:43:34;;;;;;;15.70;8.90;;;;;;;;;;5012012;28;20030;-79
2023/05/15 13:46:00;;;;;;;12.68;10.20;;;;;;;;;;5020415;28;20039;-80
2023/05/15 13:48:26;;;;;;;12.13;8.82;;;;;;;;;;5016429;28;20039;-77
2023/05/15 13:50:52;;;;;;;11.77;9.85;;;;;;;;;;5019079;28;20042;-80
2023/05/15 13:53:21;;;;;;;12.07;8.27;;;;;;;;;;5004469;28;20018;-77
2023/05/15 13:55:47;;;;;;;12.13;8.45;;;;;;;;;;5019558;28;20045;-80
2023/05/15 13:58:19;;;;;;;10.88;7.15;;;;;;;;;;5016037;28;21091;-80
2023/05/15 14:00:46;;;;;;;12.07;7.57;;;;;;;;;;5005837;28;20102;-78
2023/05/15 14:03:12;;;;;;;10.10;7.70;;;;;;;;;;5002117;28;20111;-78
2023/05/15 14:05:38;;;;;;;10.93;8.38;;;;;;;;;;5015664;28;20053;-76
2023/05/15 14:08:04;;;;;;;17.10;9.50;;;;;;;;;;5014093;28;20046;-78
2023/05/15 14:10:31;;;;;;;12.60;9.15;;;;;;;;;;5003118;28;20027;-78
2023/05/15 14:12:57;;;;;;;21.10;17.48;;;;;;;;;;5003166;28;20514;-80
2023/05/15 14:15:23;;;;;;;26.30;20.40;;;;;;;;;;5003449;28;20030;-80
2023/05/15 14:17:49;;;;;;;21.08;18.05;;;;;;;;;;5002657;28;20023;-79
2023/05/15 14:20:15;;;;;;;25.02;18.73;;;;;;;;;;5003753;28;20034;-79
2023/05/15 14:22:41;;;;;;;27.77;22.95;;;;;;;;;;5002683;28;21246;-81